createdAt,value
2023-03-06T00:01:09.771Z,95269.16
2023-03-06T00:03:41.137Z,95258.50
2023-03-06T00:06:15.532Z,95258.38
2023-03-06T00:08:42.158Z,95261.94
2023-03-06T00:11:15.580Z,95259.75
2023-03-06T00:13:44.620Z,95257.63
2023-03-06T00:16:13.685Z,95243.06
2023-03-06T00:18:40.409Z,95235.94
2023-03-06T00:21:08.194Z,95243.81
2023-03-06T00:23:34.852Z,95247.22
2023-03-06T00:26:01.490Z,95238.53
2023-03-06T00:28:31.059Z,95230.44
2023-03-06T00:31:00.538Z,95239.03
2023-03-06T00:33:31.237Z,95231.56
2023-03-06T00:36:04.805Z,95234.50
2023-03-06T00:38:33.524Z,95226.78
2023-03-06T00:41:00.148Z,95222.38
2023-03-06T00:43:32.698Z,95223.47
2023-03-06T00:45:59.381Z,95215.72
2023-03-06T00:48:28.489Z,95211.44
2023-03-06T00:50:55.233Z,95210.81
2023-03-06T00:53:28.964Z,95206.28
2023-03-06T00:55:58.786Z,95220.78
2023-03-06T00:58:30.602Z,95200.63
2023-03-06T01:00:57.271Z,95188.75
2023-03-06T01:03:26.224Z,95178.34
2023-03-06T01:05:52.857Z,95186.19
2023-03-06T01:08:21.856Z,95156.53
2023-03-06T01:10:48.479Z,95192.06
2023-03-06T01:13:16.090Z,95177.94
2023-03-06T01:15:47.579Z,95160.78
2023-03-06T01:18:21.663Z,95161.75
2023-03-06T01:20:53.884Z,95163.13
2023-03-06T01:23:23.018Z,95161.66
2023-03-06T01:25:49.614Z,95155.25
2023-03-06T01:28:22.322Z,95156.84
2023-03-06T01:30:54.349Z,95132.44
2023-03-06T01:33:21.010Z,95154.38
2023-03-06T01:35:47.753Z,95148.84
2023-03-06T01:38:16.659Z,95139.41
2023-03-06T01:40:48.690Z,95134.13
2023-03-06T01:43:26.847Z,95126.41
2023-03-06T01:46:30.846Z,95117.06
2023-03-06T01:49:02.336Z,95097.59
2023-03-06T01:51:33.513Z,95099.03
2023-03-06T01:54:08.828Z,95092.47
2023-03-06T01:56:40.972Z,95095.41
2023-03-06T01:59:13.072Z,95099.78
2023-03-06T02:01:46.677Z,95103.34
2023-03-06T02:04:16.899Z,95079.59
2023-03-06T02:06:47.602Z,95084.00
2023-03-06T02:09:17.044Z,95074.75
2023-03-06T02:11:46.456Z,95086.25
2023-03-06T02:14:18.320Z,95078.00
2023-03-06T02:16:50.678Z,95066.38
2023-03-06T02:19:42.821Z,95072.88
2023-03-06T02:22:14.490Z,95066.53
2023-03-06T02:25:00.713Z,95068.97
2023-03-06T02:27:32.940Z,95080.03
2023-03-06T02:29:59.673Z,95080.91
2023-03-06T02:32:29.279Z,95066.31
2023-03-06T02:35:00.038Z,95040.47
2023-03-06T02:37:30.394Z,95054.66
2023-03-06T02:40:08.333Z,95041.66
2023-03-06T02:42:35.370Z,95045.81
2023-03-06T02:45:03.586Z,95033.72
2023-03-06T02:47:35.508Z,95043.53
2023-03-06T02:50:02.279Z,95046.94
2023-03-06T02:52:31.247Z,95040.59
2023-03-06T02:55:00.246Z,95034.09
2023-03-06T02:57:26.890Z,95036.31
2023-03-06T03:00:00.922Z,95030.03
2023-03-06T03:02:27.729Z,95011.72
2023-03-06T03:05:00.325Z,95027.31
2023-03-06T03:07:26.979Z,95024.28
2023-03-06T03:09:55.901Z,95003.97
2023-03-06T03:12:25.395Z,95021.63
2023-03-06T03:14:52.006Z,95023.94
2023-03-06T03:17:21.012Z,95000.06
2023-03-06T03:19:51.601Z,95017.81
2023-03-06T03:22:23.061Z,95013.75
2023-03-06T03:24:50.185Z,95017.16
2023-03-06T03:27:21.346Z,94993.44
2023-03-06T03:29:50.754Z,95009.56
2023-03-06T03:32:18.713Z,95004.66
2023-03-06T03:34:50.232Z,95001.09
2023-03-06T03:37:20.351Z,95003.69
2023-03-06T03:39:53.280Z,94986.81
2023-03-06T03:42:22.662Z,94986.22
2023-03-06T03:44:53.709Z,94995.13
2023-03-06T03:47:24.068Z,94997.44
2023-03-06T03:49:56.221Z,94984.19
2023-03-06T03:52:24.208Z,94992.19
2023-03-06T03:54:55.750Z,94989.88
2023-03-06T03:57:22.629Z,94987.06
2023-03-06T03:59:59.214Z,94981.56
2023-03-06T04:02:40.786Z,94991.16
2023-03-06T04:05:22.603Z,94981.22
2023-03-06T04:07:55.122Z,94987.19
2023-03-06T04:10:26.402Z,94987.31
2023-03-06T04:12:54.047Z,94974.69
2023-03-06T04:15:20.926Z,94979.84
2023-03-06T04:17:49.377Z,94957.06
2023-03-06T04:20:27.965Z,94951.19
2023-03-06T04:22:58.183Z,94956.31
2023-03-06T04:25:27.216Z,94954.56
2023-03-06T04:27:58.746Z,94954.00
2023-03-06T04:30:25.803Z,94959.00
2023-03-06T04:32:54.764Z,94947.84
2023-03-06T04:35:24.202Z,94955.59
2023-03-06T04:38:04.376Z,94956.31
2023-03-06T04:40:34.753Z,94955.59
2023-03-06T04:43:04.879Z,94961.94
2023-03-06T04:45:32.567Z,94971.75
2023-03-06T04:48:04.021Z,94960.59
2023-03-06T04:50:33.438Z,94959.66
2023-03-06T04:53:05.497Z,94950.66
2023-03-06T04:55:35.012Z,94955.59
2023-03-06T04:58:04.381Z,94947.75
2023-03-06T05:00:33.354Z,94950.34
2023-03-06T05:03:02.716Z,94946.69
2023-03-06T05:05:29.600Z,94947.13
2023-03-06T05:07:56.432Z,94930.59
2023-03-06T05:10:25.913Z,94934.88
2023-03-06T05:12:52.543Z,94945.88
2023-03-06T05:15:21.428Z,94929.47
2023-03-06T05:17:48.144Z,94943.47
2023-03-06T05:20:15.665Z,94939.00
2023-03-06T05:22:45.010Z,94933.16
2023-03-06T05:25:14.105Z,94941.72
2023-03-06T05:27:45.825Z,94933.75
2023-03-06T05:30:16.160Z,94934.50
2023-03-06T05:32:45.235Z,94929.34
2023-03-06T05:35:20.957Z,94931.91
2023-03-06T05:37:50.589Z,94936.81
2023-03-06T05:40:18.892Z,94933.38
2023-03-06T05:42:48.017Z,94926.28
2023-03-06T05:45:17.157Z,94928.25
2023-03-06T05:47:46.322Z,94921.00
2023-03-06T05:50:20.199Z,94919.09
2023-03-06T05:52:54.600Z,94932.81
2023-03-06T05:55:21.856Z,94926.94
2023-03-06T05:57:50.908Z,94932.69
2023-03-06T06:00:20.774Z,94935.00
2023-03-06T06:02:54.621Z,94927.41
2023-03-06T06:05:21.317Z,94929.47
2023-03-06T06:07:52.880Z,94923.50
2023-03-06T06:10:21.844Z,94923.38
2023-03-06T06:12:48.452Z,94928.91
2023-03-06T06:15:20.050Z,94935.00
2023-03-06T06:17:51.492Z,94922.78
2023-03-06T06:20:20.798Z,94937.31
2023-03-06T06:22:47.409Z,94932.94
2023-03-06T06:25:14.313Z,94926.03
2023-03-06T06:27:43.546Z,94939.53
2023-03-06T06:30:13.263Z,94936.81
2023-03-06T06:32:44.757Z,94942.72
2023-03-06T06:35:16.664Z,94939.16
2023-03-06T06:37:45.831Z,94954.34
2023-03-06T06:40:15.159Z,94952.38
2023-03-06T06:42:41.913Z,94939.91
2023-03-06T06:45:11.715Z,94941.09
2023-03-06T06:47:41.794Z,94952.50
2023-03-06T06:50:17.264Z,94953.31
2023-03-06T06:52:48.684Z,94951.53
2023-03-06T06:55:15.320Z,94936.06
2023-03-06T06:57:44.316Z,94954.06
2023-03-06T07:00:15.124Z,94955.75
2023-03-06T07:02:44.264Z,94951.47
2023-03-06T07:05:13.260Z,94947.81
2023-03-06T07:07:44.989Z,94944.97
2023-03-06T07:10:19.941Z,94949.91
2023-03-06T07:12:47.464Z,94946.44
2023-03-06T07:15:15.552Z,94953.06
2023-03-06T07:17:49.830Z,94946.88
2023-03-06T07:20:23.037Z,94954.09
2023-03-06T07:22:52.071Z,94955.56
2023-03-06T07:25:25.473Z,94942.22
2023-03-06T07:27:57.660Z,94947.59
2023-03-06T07:30:29.335Z,94945.38
2023-03-06T07:33:00.084Z,94944.22
2023-03-06T07:35:31.514Z,94950.63
2023-03-06T07:38:00.764Z,94937.00
2023-03-06T07:40:29.725Z,94949.75
2023-03-06T07:43:13.014Z,94950.72
2023-03-06T07:45:56.575Z,94953.66
2023-03-06T07:48:23.208Z,94953.13
2023-03-06T07:50:58.458Z,94948.25
2023-03-06T07:53:26.030Z,94959.53
2023-03-06T07:55:53.105Z,94941.03
2023-03-06T07:58:22.111Z,94952.41
2023-03-06T08:00:51.071Z,94947.50
2023-03-06T08:03:24.753Z,94966.44
2023-03-06T08:06:04.229Z,94964.47
2023-03-06T08:08:30.842Z,94958.72
2023-03-06T08:10:57.511Z,94964.78
2023-03-06T08:13:26.154Z,94976.28
2023-03-06T08:15:56.318Z,94965.63
2023-03-06T08:18:25.384Z,94968.16
2023-03-06T08:21:01.803Z,94960.44
2023-03-06T08:23:28.541Z,94964.06
2023-03-06T08:26:01.558Z,94975.78
2023-03-06T08:28:33.906Z,94972.25
2023-03-06T08:31:11.698Z,94976.75
2023-03-06T08:33:44.270Z,94973.22
2023-03-06T08:36:13.198Z,94978.22
2023-03-06T08:38:42.540Z,94958.75
2023-03-06T08:41:11.509Z,94961.06
2023-03-06T08:43:40.560Z,94968.72
2023-03-06T08:46:14.778Z,94975.81
2023-03-06T08:48:47.774Z,94982.22
2023-03-06T08:51:16.778Z,94981.78
2023-03-06T08:53:46.228Z,94989.00
2023-03-06T08:56:20.487Z,94985.88
2023-03-06T08:58:50.908Z,94982.50
2023-03-06T09:01:27.769Z,94987.75
2023-03-06T09:04:02.253Z,94985.03
2023-03-06T09:06:32.542Z,94987.31
2023-03-06T09:08:59.782Z,94994.34
2023-03-06T09:11:27.280Z,94991.50
2023-03-06T09:13:57.054Z,94984.72
2023-03-06T09:16:24.462Z,94986.38
2023-03-06T09:18:54.133Z,94989.22
2023-03-06T09:21:22.269Z,94980.34
2023-03-06T09:23:54.054Z,94994.06
2023-03-06T09:26:43.284Z,94981.19
2023-03-06T09:29:12.684Z,94987.97
2023-03-06T09:31:43.963Z,94971.47
2023-03-06T09:34:13.153Z,94986.31
2023-03-06T09:36:56.615Z,94991.41
2023-03-06T09:39:28.092Z,94986.63
2023-03-06T09:41:58.517Z,94986.53
2023-03-06T09:44:34.544Z,94998.22
2023-03-06T09:47:24.900Z,94993.53
2023-03-06T09:50:12.710Z,94991.31
2023-03-06T09:53:15.409Z,94989.44
2023-03-06T09:55:51.711Z,94977.00
2023-03-06T09:58:25.154Z,94977.09
2023-03-06T10:01:01.066Z,94996.97
2023-03-06T10:03:32.334Z,94992.69
2023-03-06T10:06:06.845Z,94990.78
2023-03-06T10:08:45.809Z,94986.06
2023-03-06T10:11:22.309Z,94994.75
2023-03-06T10:13:54.204Z,94989.94
2023-03-06T10:16:31.166Z,94983.66
2023-03-06T10:19:03.591Z,94976.97
2023-03-06T10:21:55.311Z,94973.19
2023-03-06T10:24:46.898Z,94984.69
2023-03-06T10:27:40.704Z,94983.44
2023-03-06T10:30:32.805Z,94968.53
2023-03-06T10:33:01.880Z,94976.41
2023-03-06T10:35:42.323Z,94977.97
2023-03-06T10:38:37.501Z,94983.72
2023-03-06T10:41:15.450Z,94978.78
2023-03-06T10:44:04.779Z,94978.97
2023-03-06T10:46:41.847Z,94963.38
2023-03-06T10:49:30.086Z,94962.22
2023-03-06T10:52:07.719Z,94967.25
2023-03-06T10:54:43.080Z,94960.88
2023-03-06T10:57:29.680Z,94969.25
2023-03-06T11:00:01.250Z,94964.59
2023-03-06T11:02:34.028Z,94959.78
2023-03-06T11:05:09.391Z,94945.66
2023-03-06T11:07:52.911Z,94956.41
2023-03-06T11:10:20.558Z,94959.34
2023-03-06T11:12:58.736Z,94966.38
2023-03-06T11:15:27.386Z,94954.13
2023-03-06T11:17:56.604Z,94963.34
2023-03-06T11:20:48.606Z,94955.59
2023-03-06T11:23:31.476Z,94955.69
2023-03-06T11:26:02.594Z,94956.88
2023-03-06T11:28:37.342Z,94959.16
2023-03-06T11:31:10.530Z,94947.03
2023-03-06T11:33:52.944Z,94937.06
2023-03-06T11:36:29.288Z,94954.44
2023-03-06T11:38:56.460Z,94949.84
2023-03-06T11:41:57.867Z,94951.41
2023-03-06T11:44:54.067Z,94940.91
2023-03-06T11:47:32.036Z,94955.59
2023-03-06T11:50:20.300Z,94956.59
2023-03-06T11:53:00.412Z,94943.63
2023-03-06T11:56:00.071Z,94948.03
2023-03-06T11:59:07.782Z,94947.84
2023-03-06T12:01:41.268Z,94943.25
2023-03-06T12:04:19.256Z,94948.28
2023-03-06T12:07:10.359Z,94942.63
2023-03-06T12:09:56.808Z,94931.34
2023-03-06T12:12:45.823Z,94946.91
2023-03-06T12:15:14.716Z,94945.56
2023-03-06T12:17:55.153Z,94942.63
2023-03-06T12:20:58.778Z,94936.13
2023-03-06T12:23:37.593Z,94937.41
2023-03-06T12:26:22.292Z,94935.31
2023-03-06T12:29:06.442Z,94933.09
2023-03-06T12:32:10.234Z,94931.66
2023-03-06T12:34:57.688Z,94926.59
2023-03-06T12:37:49.379Z,94934.47
2023-03-06T12:40:23.585Z,94933.94
2023-03-06T12:43:10.808Z,94925.56
2023-03-06T12:45:40.944Z,94927.75
2023-03-06T12:48:18.533Z,94912.97
2023-03-06T12:50:46.049Z,94919.91
2023-03-06T12:53:23.576Z,94911.00
2023-03-06T12:55:51.002Z,94921.78
2023-03-06T12:58:32.515Z,94920.84
2023-03-06T13:01:20.031Z,94917.94
2023-03-06T13:04:07.092Z,94915.84
2023-03-06T13:06:54.213Z,94920.94
2023-03-06T13:09:42.214Z,94914.69
2023-03-06T13:12:28.938Z,94928.81
2023-03-06T13:14:58.373Z,94916.28
2023-03-06T13:17:34.485Z,94918.19
2023-03-06T13:20:26.974Z,94916.84
2023-03-06T13:22:56.734Z,94920.31
2023-03-06T13:25:28.939Z,94917.38
2023-03-06T13:27:57.695Z,94910.34
2023-03-06T13:30:36.677Z,94911.31
2023-03-06T13:33:32.427Z,94912.88
2023-03-06T13:36:28.693Z,94914.41
2023-03-06T13:39:16.473Z,94902.81
2023-03-06T13:41:59.058Z,94908.97
2023-03-06T13:44:28.352Z,94909.72
2023-03-06T13:47:27.487Z,94902.59
2023-03-06T13:49:54.187Z,94907.69
2023-03-06T13:52:46.071Z,94907.88
2023-03-06T13:55:12.648Z,94908.72
2023-03-06T13:57:47.692Z,94907.88
2023-03-06T14:00:22.274Z,94903.06
2023-03-06T14:03:16.276Z,94900.34
2023-03-06T14:05:50.988Z,94903.28
2023-03-06T14:08:19.932Z,94899.06
2023-03-06T14:11:06.803Z,94884.66
2023-03-06T14:13:47.089Z,94888.59
2023-03-06T14:16:22.154Z,94889.03
2023-03-06T14:18:53.891Z,94891.13
2023-03-06T14:21:47.550Z,94891.22
2023-03-06T14:24:17.106Z,94893.94
2023-03-06T14:26:51.304Z,94892.66
2023-03-06T14:29:28.269Z,94891.13
2023-03-06T14:32:02.420Z,94887.94
2023-03-06T14:34:45.867Z,94880.94
2023-03-06T14:37:22.020Z,94882.38
2023-03-06T14:39:56.125Z,94883.75
2023-03-06T14:42:25.293Z,94882.81
2023-03-06T14:45:24.864Z,94882.81
2023-03-06T14:47:53.052Z,94887.13
2023-03-06T14:50:30.016Z,94879.19
2023-03-06T14:52:57.722Z,94882.44
2023-03-06T14:55:30.209Z,94876.78
2023-03-06T14:58:02.145Z,94880.63
2023-03-06T15:00:38.634Z,94874.06
2023-03-06T15:03:12.817Z,94895.13
2023-03-06T15:05:48.995Z,94882.78
2023-03-06T15:08:25.399Z,94856.50
2023-03-06T15:11:01.083Z,94876.78
2023-03-06T15:13:29.863Z,94874.78
2023-03-06T15:16:06.747Z,94857.34
2023-03-06T15:18:55.190Z,94878.66
2023-03-06T15:21:24.169Z,94880.94
2023-03-06T15:23:56.049Z,94874.66
2023-03-06T15:26:25.919Z,94874.84
2023-03-06T15:29:10.013Z,94874.09
2023-03-06T15:31:42.664Z,94880.13
2023-03-06T15:34:09.313Z,94882.81
2023-03-06T15:36:44.487Z,94873.09
2023-03-06T15:39:32.498Z,94878.94
2023-03-06T15:42:18.254Z,94873.00
2023-03-06T15:44:54.014Z,94876.91
2023-03-06T15:47:21.909Z,94864.59
2023-03-06T15:49:52.142Z,94882.66
2023-03-06T15:52:20.294Z,94874.38
2023-03-06T15:54:51.780Z,94877.09
2023-03-06T15:57:29.394Z,94869.91
2023-03-06T15:59:57.388Z,94875.28
2023-03-06T16:02:27.571Z,94876.19
2023-03-06T16:04:54.277Z,94877.66
2023-03-06T16:07:21.301Z,94874.56
2023-03-06T16:09:48.280Z,94880.50
2023-03-06T16:12:22.703Z,94891.25
2023-03-06T16:14:55.181Z,94876.81
2023-03-06T16:17:24.183Z,94887.16
2023-03-06T16:19:53.097Z,94883.59
2023-03-06T16:22:24.686Z,94883.59
2023-03-06T16:24:54.010Z,94896.91
2023-03-06T16:27:28.260Z,94878.09
2023-03-06T16:29:59.841Z,94869.63
2023-03-06T16:32:28.702Z,94879.66
2023-03-06T16:34:55.497Z,94891.72
2023-03-06T16:37:24.592Z,94894.00
2023-03-06T16:39:53.511Z,94899.94
2023-03-06T16:42:23.273Z,94890.97
2023-03-06T16:44:52.184Z,94893.06
2023-03-06T16:47:18.819Z,94904.69
2023-03-06T16:49:52.046Z,94891.22
2023-03-06T16:52:21.097Z,94904.72
2023-03-06T16:54:52.915Z,94911.84
2023-03-06T16:57:21.905Z,94901.38
2023-03-06T16:59:51.500Z,94894.34
2023-03-06T17:02:23.470Z,94894.13
2023-03-06T17:04:57.624Z,94900.34
2023-03-06T17:07:26.982Z,94898.88
2023-03-06T17:09:58.527Z,94900.34
2023-03-06T17:12:25.255Z,94893.94
2023-03-06T17:14:54.789Z,94905.34
2023-03-06T17:17:23.688Z,94900.34
2023-03-06T17:19:53.140Z,94891.56
2023-03-06T17:22:25.274Z,94900.25
2023-03-06T17:24:54.946Z,94903.88
2023-03-06T17:27:22.771Z,94912.19
2023-03-06T17:29:49.507Z,94914.28
2023-03-06T17:32:20.721Z,94909.25
2023-03-06T17:34:47.558Z,94921.84
2023-03-06T17:37:16.763Z,94909.41
2023-03-06T17:39:45.984Z,94906.63
2023-03-06T17:42:17.254Z,94924.47
2023-03-06T17:44:47.989Z,94927.84
2023-03-06T17:47:14.846Z,94922.09
2023-03-06T17:49:43.873Z,94925.94
2023-03-06T17:52:11.169Z,94928.84
2023-03-06T17:54:42.620Z,94928.34
2023-03-06T17:57:12.341Z,94929.69
2023-03-06T17:59:39.228Z,94919.09
2023-03-06T18:02:06.450Z,94930.59
2023-03-06T18:04:33.317Z,94928.53
2023-03-06T18:07:04.608Z,94929.69
2023-03-06T18:09:31.264Z,94905.94
2023-03-06T18:12:02.890Z,94923.41
2023-03-06T18:14:32.013Z,94916.09
2023-03-06T18:16:58.766Z,94922.03
2023-03-06T18:19:27.804Z,94940.88
2023-03-06T18:21:56.663Z,94922.13
2023-03-06T18:24:23.553Z,94924.94
2023-03-06T18:26:52.532Z,94943.56
2023-03-06T18:29:21.722Z,94940.22
2023-03-06T18:31:50.453Z,94941.06
2023-03-06T18:34:22.846Z,94954.56
2023-03-06T18:36:51.675Z,94945.47
2023-03-06T18:39:19.264Z,94961.69
2023-03-06T18:41:51.814Z,94943.72
2023-03-06T18:44:19.021Z,94953.19
2023-03-06T18:46:48.028Z,94949.47
2023-03-06T18:49:17.505Z,94948.81
2023-03-06T18:51:44.407Z,94947.44
2023-03-06T18:54:11.752Z,94951.75
2023-03-06T18:56:44.182Z,94950.38
2023-03-06T18:59:18.901Z,94944.53
2023-03-06T19:01:51.924Z,94952.38
2023-03-06T19:04:21.253Z,94943.16
2023-03-06T19:06:51.452Z,94945.78
2023-03-06T19:09:20.622Z,94934.28
2023-03-06T19:11:49.692Z,94950.19
2023-03-06T19:14:18.822Z,94944.41
2023-03-06T19:16:50.104Z,94943.19
2023-03-06T19:19:21.386Z,94949.59
2023-03-06T19:21:50.374Z,94951.47
2023-03-06T19:24:21.690Z,94957.69
2023-03-06T19:26:48.511Z,94962.09
2023-03-06T19:29:17.614Z,94948.47
2023-03-06T19:31:44.614Z,94943.75
2023-03-06T19:34:11.333Z,94952.16
2023-03-06T19:36:40.645Z,94948.69
2023-03-06T19:39:11.170Z,94952.44
2023-03-06T19:41:37.832Z,94945.97
2023-03-06T19:44:06.013Z,94955.28
2023-03-06T19:46:37.749Z,94946.69
2023-03-06T19:49:11.853Z,94954.56
2023-03-06T19:51:38.760Z,94960.94
2023-03-06T19:54:05.494Z,94943.34
2023-03-06T19:56:33.811Z,94943.97
2023-03-06T19:59:02.948Z,94949.72
2023-03-06T20:01:33.780Z,94942.59
2023-03-06T20:04:00.634Z,94939.06
2023-03-06T20:06:39.024Z,94951.53
2023-03-06T20:09:11.289Z,94927.28
2023-03-06T20:11:40.453Z,94944.63
2023-03-06T20:14:10.543Z,94952.06
2023-03-06T20:16:37.872Z,94949.69
2023-03-06T20:19:05.604Z,94960.44
2023-03-06T20:21:37.654Z,94963.81
2023-03-06T20:24:08.420Z,94964.53
2023-03-06T20:26:37.691Z,94976.38
2023-03-06T20:29:09.586Z,94964.63
2023-03-06T20:31:40.809Z,94960.88
2023-03-06T20:34:13.816Z,94954.06
2023-03-06T20:36:43.196Z,94951.97
2023-03-06T20:39:14.642Z,94960.69
2023-03-06T20:41:44.246Z,94945.91
2023-03-06T20:44:15.399Z,94953.97
2023-03-06T20:46:44.947Z,94959.53
2023-03-06T20:49:16.680Z,94951.16
2023-03-06T20:51:45.967Z,94958.47
2023-03-06T20:54:14.916Z,94967.25
2023-03-06T20:56:44.881Z,94967.78
2023-03-06T20:59:14.672Z,94971.84
2023-03-06T21:01:43.638Z,94946.31
2023-03-06T21:04:13.973Z,94947.78
2023-03-06T21:06:44.158Z,94966.00
2023-03-06T21:09:10.928Z,94947.28
2023-03-06T21:11:37.747Z,94958.06
2023-03-06T21:14:04.716Z,94949.38
2023-03-06T21:16:31.818Z,94946.75
2023-03-06T21:19:01.696Z,94952.91
2023-03-06T21:21:35.984Z,94935.03
2023-03-06T21:24:05.320Z,94961.41
2023-03-06T21:26:35.963Z,94952.81
2023-03-06T21:29:05.662Z,94952.91
2023-03-06T21:31:33.526Z,94953.13
2023-03-06T21:34:01.259Z,94953.88
2023-03-06T21:36:33.725Z,94949.13
2023-03-06T21:39:06.417Z,94949.88
2023-03-06T21:41:35.980Z,94943.19
2023-03-06T21:44:05.308Z,94942.16
2023-03-06T21:46:32.810Z,94958.88
2023-03-06T21:49:04.185Z,94951.16
2023-03-06T21:51:36.248Z,94946.44
2023-03-06T21:54:13.109Z,94941.72
2023-03-06T21:56:39.947Z,94948.22
2023-03-06T21:59:06.645Z,94952.63
2023-03-06T22:01:37.690Z,94942.47
2023-03-06T22:04:06.769Z,94943.94
2023-03-06T22:06:33.499Z,94932.94
2023-03-06T22:09:01.191Z,94934.41
2023-03-06T22:11:36.992Z,94943.28
2023-03-06T22:14:06.629Z,94921.63
2023-03-06T22:16:38.122Z,94925.41
2023-03-06T22:19:09.884Z,94913.78
2023-03-06T22:21:41.384Z,94928.34
2023-03-06T22:24:15.368Z,94922.56
2023-03-06T22:26:44.286Z,94924.84
2023-03-06T22:29:15.884Z,94916.81
2023-03-06T22:31:42.659Z,94897.56
2023-03-06T22:34:11.948Z,94907.28
2023-03-06T22:36:38.616Z,94914.00
2023-03-06T22:39:10.194Z,94913.25
2023-03-06T22:41:42.470Z,94910.63
2023-03-06T22:44:19.531Z,94901.75
2023-03-06T22:46:48.997Z,94896.41
2023-03-06T22:49:16.964Z,94899.25
2023-03-06T22:51:44.975Z,94900.69
2023-03-06T22:54:11.935Z,94905.00
2023-03-06T22:56:38.720Z,94883.13
2023-03-06T22:59:06.529Z,94875.91
2023-03-06T23:01:35.578Z,94889.41
2023-03-06T23:04:04.005Z,94904.78
2023-03-06T23:06:39.986Z,94882.44
2023-03-06T23:09:08.494Z,94887.03
2023-03-06T23:11:53.557Z,94881.59
2023-03-06T23:14:39.255Z,94875.13
2023-03-06T23:17:25.017Z,94873.75
2023-03-06T23:20:12.057Z,94885.38
2023-03-06T23:22:57.582Z,94866.94
2023-03-06T23:25:43.878Z,94871.34
2023-03-06T23:28:11.112Z,94871.66
2023-03-06T23:30:39.413Z,94874.38
2023-03-06T23:33:06.834Z,94875.13
2023-03-06T23:35:39.231Z,94885.06
2023-03-06T23:38:06.558Z,94880.78
2023-03-06T23:40:34.612Z,94869.97
2023-03-06T23:43:04.765Z,94874.16
2023-03-06T23:45:32.195Z,94887.78
2023-03-06T23:47:59.243Z,94861.09
2023-03-06T23:50:26.365Z,94877.19
2023-03-06T23:52:54.327Z,94883.69
2023-03-06T23:55:23.464Z,94863.41
2023-03-06T23:57:52.660Z,94873.97
